UNNTUDYZ

Guest
Details From UNNT - Novosibirsk Tolmachevo
To UDYZ - Zvartnots
Flight Number -
Tags Generated
Created
Modified
Stats Distance 1,757 nm / 3,255 km
Max Altitude 0 ft / 0 m
Waypoints 4
Social Downloads 3
Likes 0
Share VATSIM

Download

Looking for another format? Having issues loading an existing format? Contact us
Advertisement - Login to hide

Notes

Generated

Route

UNNT LIKSU SVN41 UDYZ

ID Type Via Altitude Latitude Longitude Leg Dist Tot Dist Heading (true) Name
O UNNT APT - 0 ft / 0 m 55.01130˚ 82.62816˚ - 0 nm - -
LIKSU FIX - 0 ft / 0 m 42.58333˚ 48.01667˚ 1537 nm 1537 nm 255° / 229° -
SVN41 FIX - 0 ft / 0 m 40.37295˚ 44.73349˚ 198 nm 1735 nm 229° / 227° -
O UDYZ APT - 0 ft / 0 m 40.14715˚ 44.37329˚ 21 nm 1757 nm 231° / 230° -

Altitude Profile

Advertisement - Login to hide

Weather


0- 5 10 15 20 25 30 35+ Temperature / ° C

Clouds and Precipitation
Forecast for 2018-05-22 00:00 UTC. Updated 2 hours ago

Ground ~20,000 ft ~40,000 ft Winds

UNNT

Details ICAO UNNT (OVB)
Name Novosibirsk Tolmachevo
Region Russia
Timezone Asia/Novosibirsk (UTC+7.0)
Stats Elevation 365 ft / 111 m (AMSL)
Location 55.013017° 82.651065°
Runways 2
Magnetic Variation 8.868° E

METAR

UNNT 220100Z 35004MPS 9999 FEW013 BKN040CB 14/10 Q1008 R25/290160 R34/290160 NOSIG RMK QFE746/0995

Decode

TAF

TAF UNNT 212300Z 2200/2224 31006G12MPS 9999 BKN020CB BECMG 2204/2206 26003G08MPS TEMPO 2206/2221 -SHRA BKN011CB

Decode

Departure Runways

ID Width Length Bearing (true) Bearing (mag) Surface Threshold Offset Overrun Length
07 190 ft / 58 m 11,817 ft / 3,602 m 81.00° 72.13° Asphalt 0 ft / 0 m 250 ft / 76 m
07L 304 ft / 93 m 9,877 ft / 3,011 m 81.01° 72.14° Grass 0 ft / 0 m 0 ft / 0 m
25 190 ft / 58 m 11,817 ft / 3,602 m 261.04° 252.17° Asphalt 0 ft / 0 m 225 ft / 69 m
25R 304 ft / 93 m 9,877 ft / 3,011 m 261.05° 252.18° Grass 0 ft / 0 m 0 ft / 0 m

UDYZ

Details ICAO UDYZ (EVN)
Name ZVARTNOTS
Region Armenia
Timezone Asia/Yerevan (UTC+4.0)
Stats Elevation 2,838 ft / 865 m (AMSL)
Location 40.147271° 44.395880°
Runways 1
Magnetic Variation 6.234° E

METAR

UDYZ 220100Z 34002KT 9999 NSC 12/11 Q1018 R09/000070 NOSIG

Decode

TAF

Not found

Destination Runways

ID Width Length Bearing (true) Bearing (mag) Surface Threshold Offset Overrun Length
09 184 ft / 56 m 12,601 ft / 3,841 m 89.59° 83.36° Asphalt 0 ft / 0 m 0 ft / 0 m
27 184 ft / 56 m 12,601 ft / 3,841 m 269.62° 263.39° Asphalt 0 ft / 0 m 0 ft / 0 m

Approach Navaids

Runway Type Ident Frequency Range Bearing (true) Bearing (mag) Slope Elevation
09 Localiser IZR 108.10 MHz 18 nm / 33 km 89.83° 83.60° - 2,838 ft / 865 m (AMSL)
09 Glidescope IZR 108.10 MHz 10 nm / 19 km 89.61° 83.37° 2.67° 2,838 ft / 865 m (AMSL)

Popular Alternatives